sensor_id;sensor_type;location;lat;lon;timestamp;temperature;humidity
18541;DHT22;9400;50.924;5.328;2022-11-13T00:00:55;9.20;99.90
18541;DHT22;9400;50.924;5.328;2022-11-13T00:03:23;9.20;99.90
18541;DHT22;9400;50.924;5.328;2022-11-13T00:05:58;9.20;99.90
18541;DHT22;9400;50.924;5.328;2022-11-13T00:08:26;9.20;99.90
18541;DHT22;9400;50.924;5.328;2022-11-13T00:11:00;9.20;99.90
18541;DHT22;9400;50.924;5.328;2022-11-13T00:13:28;9.10;99.90
18541;DHT22;9400;50.924;5.328;2022-11-13T00:15:58;9.10;99.90
18541;DHT22;9400;50.924;5.328;2022-11-13T00:18:26;9.00;99.90
18541;DHT22;9400;50.924;5.328;2022-11-13T00:20:54;8.90;99.90
18541;DHT22;9400;50.924;5.328;2022-11-13T00:23:22;9.00;99.90
18541;DHT22;9400;50.924;5.328;2022-11-13T00:25:50;8.90;99.90
18541;DHT22;9400;50.924;5.328;2022-11-13T00:28:18;8.90;99.90
18541;DHT22;9400;50.924;5.328;2022-11-13T00:30:45;8.90;99.90
18541;DHT22;9400;50.924;5.328;2022-11-13T00:33:14;8.90;99.90
18541;DHT22;9400;50.924;5.328;2022-11-13T00:35:42;9.00;99.90
18541;DHT22;9400;50.924;5.328;2022-11-13T00:38:09;9.00;99.90
18541;DHT22;9400;50.924;5.328;2022-11-13T00:40:36;8.90;99.90
18541;DHT22;9400;50.924;5.328;2022-11-13T00:43:04;8.90;99.90
18541;DHT22;9400;50.924;5.328;2022-11-13T00:45:31;8.80;99.90
18541;DHT22;9400;50.924;5.328;2022-11-13T00:47:59;8.80;99.90
18541;DHT22;9400;50.924;5.328;2022-11-13T00:50:28;8.80;99.90
18541;DHT22;9400;50.924;5.328;2022-11-13T00:52:56;8.70;99.90
18541;DHT22;9400;50.924;5.328;2022-11-13T00:55:26;8.70;99.90
18541;DHT22;9400;50.924;5.328;2022-11-13T00:57:53;8.70;99.90
18541;DHT22;9400;50.924;5.328;2022-11-13T01:00:21;8.70;99.90
18541;DHT22;9400;50.924;5.328;2022-11-13T01:02:49;8.70;99.90
18541;DHT22;9400;50.924;5.328;2022-11-13T01:05:16;8.60;99.90
18541;DHT22;9400;50.924;5.328;2022-11-13T01:07:45;8.60;99.90
18541;DHT22;9400;50.924;5.328;2022-11-13T01:10:13;8.60;99.90
18541;DHT22;9400;50.924;5.328;2022-11-13T01:12:41;8.60;99.90
18541;DHT22;9400;50.924;5.328;2022-11-13T01:15:10;8.50;99.90
18541;DHT22;9400;50.924;5.328;2022-11-13T01:17:38;8.50;99.90
18541;DHT22;9400;50.924;5.328;2022-11-13T01:20:06;8.40;99.90
18541;DHT22;9400;50.924;5.328;2022-11-13T01:22:33;8.40;99.90
18541;DHT22;9400;50.924;5.328;2022-11-13T01:25:03;8.30;99.90
18541;DHT22;9400;50.924;5.328;2022-11-13T01:27:31;8.30;99.90
18541;DHT22;9400;50.924;5.328;2022-11-13T01:29:59;8.40;99.90
18541;DHT22;9400;50.924;5.328;2022-11-13T01:32:26;8.30;99.90
18541;DHT22;9400;50.924;5.328;2022-11-13T01:34:54;8.40;99.90
18541;DHT22;9400;50.924;5.328;2022-11-13T01:37:21;8.40;99.90
18541;DHT22;9400;50.924;5.328;2022-11-13T01:39:49;8.30;99.90
18541;DHT22;9400;50.924;5.328;2022-11-13T01:42:18;8.30;99.90
18541;DHT22;9400;50.924;5.328;2022-11-13T01:44:48;8.30;99.90
18541;DHT22;9400;50.924;5.328;2022-11-13T01:47:16;8.20;99.90
18541;DHT22;9400;50.924;5.328;2022-11-13T01:49:45;8.20;99.90
18541;DHT22;9400;50.924;5.328;2022-11-13T01:52:15;8.10;99.90
18541;DHT22;9400;50.924;5.328;2022-11-13T01:54:47;8.00;99.90
18541;DHT22;9400;50.924;5.328;2022-11-13T01:57:18;8.10;99.90
18541;DHT22;9400;50.924;5.328;2022-11-13T01:59:49;8.10;99.90
18541;DHT22;9400;50.924;5.328;2022-11-13T02:02:16;8.20;99.90
18541;DHT22;9400;50.924;5.328;2022-11-13T02:04:44;8.20;99.90
18541;DHT22;9400;50.924;5.328;2022-11-13T02:07:14;8.10;99.90
18541;DHT22;9400;50.924;5.328;2022-11-13T02:09:44;8.00;99.90
18541;DHT22;9400;50.924;5.328;2022-11-13T02:12:14;8.00;99.90
18541;DHT22;9400;50.924;5.328;2022-11-13T02:14:47;8.00;99.90
18541;DHT22;9400;50.924;5.328;2022-11-13T02:17:19;8.00;99.90
18541;DHT22;9400;50.924;5.328;2022-11-13T02:19:53;8.00;99.90
18541;DHT22;9400;50.924;5.328;2022-11-13T02:22:30;7.90;99.90
18541;DHT22;9400;50.924;5.328;2022-11-13T02:25:03;8.00;99.90
18541;DHT22;9400;50.924;5.328;2022-11-13T02:27:35;8.00;99.90
18541;DHT22;9400;50.924;5.328;2022-11-13T02:30:15;8.00;99.90
18541;DHT22;9400;50.924;5.328;2022-11-13T02:32:45;8.10;99.90
18541;DHT22;9400;50.924;5.328;2022-11-13T02:35:13;8.10;99.90
18541;DHT22;9400;50.924;5.328;2022-11-13T02:37:41;8.10;99.90
18541;DHT22;9400;50.924;5.328;2022-11-13T02:40:11;8.20;99.90
18541;DHT22;9400;50.924;5.328;2022-11-13T02:42:39;8.20;99.90
18541;DHT22;9400;50.924;5.328;2022-11-13T02:45:07;8.20;99.90
18541;DHT22;9400;50.924;5.328;2022-11-13T02:47:35;8.10;99.90
18541;DHT22;9400;50.924;5.328;2022-11-13T02:50:04;8.10;99.90
18541;DHT22;9400;50.924;5.328;2022-11-13T02:52:31;8.10;99.90
18541;DHT22;9400;50.924;5.328;2022-11-13T02:55:01;8.00;99.90
18541;DHT22;9400;50.924;5.328;2022-11-13T02:57:30;8.00;99.90
18541;DHT22;9400;50.924;5.328;2022-11-13T02:59:57;8.00;99.90
18541;DHT22;9400;50.924;5.328;2022-11-13T03:02:25;8.00;99.90
18541;DHT22;9400;50.924;5.328;2022-11-13T03:04:53;7.90;99.90
18541;DHT22;9400;50.924;5.328;2022-11-13T03:07:20;8.00;99.90
18541;DHT22;9400;50.924;5.328;2022-11-13T03:09:48;8.00;99.90
18541;DHT22;9400;50.924;5.328;2022-11-13T03:12:16;7.90;99.90
18541;DHT22;9400;50.924;5.328;2022-11-13T03:14:45;7.90;99.90
18541;DHT22;9400;50.924;5.328;2022-11-13T03:17:13;7.90;99.90
18541;DHT22;9400;50.924;5.328;2022-11-13T03:19:40;8.00;99.90
18541;DHT22;9400;50.924;5.328;2022-11-13T03:22:08;8.00;99.90
18541;DHT22;9400;50.924;5.328;2022-11-13T03:24:36;8.00;99.90
18541;DHT22;9400;50.924;5.328;2022-11-13T03:27:04;8.00;99.90
18541;DHT22;9400;50.924;5.328;2022-11-13T03:29:31;8.00;99.90
18541;DHT22;9400;50.924;5.328;2022-11-13T03:32:00;8.00;99.90
18541;DHT22;9400;50.924;5.328;2022-11-13T03:34:29;8.00;99.90
18541;DHT22;9400;50.924;5.328;2022-11-13T03:36:57;8.00;99.90
18541;DHT22;9400;50.924;5.328;2022-11-13T03:39:24;8.00;99.90
18541;DHT22;9400;50.924;5.328;2022-11-13T03:41:52;8.00;99.90
18541;DHT22;9400;50.924;5.328;2022-11-13T03:44:19;7.90;99.90
18541;DHT22;9400;50.924;5.328;2022-11-13T03:46:48;8.00;99.90
18541;DHT22;9400;50.924;5.328;2022-11-13T03:49:17;8.00;99.90
18541;DHT22;9400;50.924;5.328;2022-11-13T03:51:46;8.00;99.90
18541;DHT22;9400;50.924;5.328;2022-11-13T03:54:14;8.00;99.90
18541;DHT22;9400;50.924;5.328;2022-11-13T03:56:42;8.10;99.90
18541;DHT22;9400;50.924;5.328;2022-11-13T03:59:09;8.00;99.90
18541;DHT22;9400;50.924;5.328;2022-11-13T04:01:37;8.00;99.90
18541;DHT22;9400;50.924;5.328;2022-11-13T04:04:05;8.00;99.90
18541;DHT22;9400;50.924;5.328;2022-11-13T04:06:34;8.00;99.90
18541;DHT22;9400;50.924;5.328;2022-11-13T04:09:02;7.90;99.90
18541;DHT22;9400;50.924;5.328;2022-11-13T04:11:30;7.90;99.90
18541;DHT22;9400;50.924;5.328;2022-11-13T04:13:57;7.90;99.90
18541;DHT22;9400;50.924;5.328;2022-11-13T04:16:25;8.00;99.90
18541;DHT22;9400;50.924;5.328;2022-11-13T04:18:53;7.90;99.90
18541;DHT22;9400;50.924;5.328;2022-11-13T04:21:20;7.90;99.90
18541;DHT22;9400;50.924;5.328;2022-11-13T04:23:49;7.80;99.90
18541;DHT22;9400;50.924;5.328;2022-11-13T04:26:16;7.80;99.90
18541;DHT22;9400;50.924;5.328;2022-11-13T04:28:44;7.90;99.90
18541;DHT22;9400;50.924;5.328;2022-11-13T04:31:12;7.70;99.90
18541;DHT22;9400;50.924;5.328;2022-11-13T04:33:39;7.70;99.90
18541;DHT22;9400;50.924;5.328;2022-11-13T04:36:06;7.70;99.90
18541;DHT22;9400;50.924;5.328;2022-11-13T04:38:34;7.70;99.90
18541;DHT22;9400;50.924;5.328;2022-11-13T04:41:04;7.70;99.90
18541;DHT22;9400;50.924;5.328;2022-11-13T04:43:48;7.70;99.90
18541;DHT22;9400;50.924;5.328;2022-11-13T04:46:16;7.70;99.90
18541;DHT22;9400;50.924;5.328;2022-11-13T04:48:47;7.70;99.90
18541;DHT22;9400;50.924;5.328;2022-11-13T04:51:14;7.60;99.90
18541;DHT22;9400;50.924;5.328;2022-11-13T04:53:43;7.60;99.90
18541;DHT22;9400;50.924;5.328;2022-11-13T04:56:12;7.50;99.90
18541;DHT22;9400;50.924;5.328;2022-11-13T04:58:40;7.40;99.90
18541;DHT22;9400;50.924;5.328;2022-11-13T05:01:08;7.40;99.90
18541;DHT22;9400;50.924;5.328;2022-11-13T05:03:35;7.40;99.90
18541;DHT22;9400;50.924;5.328;2022-11-13T05:06:04;7.40;99.90
18541;DHT22;9400;50.924;5.328;2022-11-13T05:08:32;7.40;99.90
18541;DHT22;9400;50.924;5.328;2022-11-13T05:11:00;7.40;99.90
18541;DHT22;9400;50.924;5.328;2022-11-13T05:13:31;7.40;99.90
18541;DHT22;9400;50.924;5.328;2022-11-13T05:16:00;7.40;99.90
18541;DHT22;9400;50.924;5.328;2022-11-13T05:18:28;7.40;99.90
18541;DHT22;9400;50.924;5.328;2022-11-13T05:20:56;7.40;99.90
18541;DHT22;9400;50.924;5.328;2022-11-13T05:23:24;7.40;99.90
18541;DHT22;9400;50.924;5.328;2022-11-13T05:25:52;7.30;99.90
18541;DHT22;9400;50.924;5.328;2022-11-13T05:28:19;7.30;99.90
18541;DHT22;9400;50.924;5.328;2022-11-13T05:30:48;7.30;99.90
18541;DHT22;9400;50.924;5.328;2022-11-13T05:33:15;7.30;99.90
18541;DHT22;9400;50.924;5.328;2022-11-13T05:35:43;7.30;99.90
18541;DHT22;9400;50.924;5.328;2022-11-13T05:38:10;7.20;99.90
18541;DHT22;9400;50.924;5.328;2022-11-13T05:40:38;7.20;99.90
18541;DHT22;9400;50.924;5.328;2022-11-13T05:43:05;7.20;99.90
18541;DHT22;9400;50.924;5.328;2022-11-13T05:45:33;7.10;99.90
18541;DHT22;9400;50.924;5.328;2022-11-13T05:48:01;7.10;99.90
18541;DHT22;9400;50.924;5.328;2022-11-13T05:50:29;7.00;99.90
18541;DHT22;9400;50.924;5.328;2022-11-13T05:52:56;7.00;99.90
18541;DHT22;9400;50.924;5.328;2022-11-13T05:55:24;7.10;99.90
18541;DHT22;9400;50.924;5.328;2022-11-13T05:57:51;7.00;99.90
18541;DHT22;9400;50.924;5.328;2022-11-13T06:00:18;7.10;99.90
18541;DHT22;9400;50.924;5.328;2022-11-13T06:02:46;7.00;99.90
18541;DHT22;9400;50.924;5.328;2022-11-13T06:05:17;7.00;99.90
18541;DHT22;9400;50.924;5.328;2022-11-13T06:07:48;7.00;99.90
18541;DHT22;9400;50.924;5.328;2022-11-13T06:10:16;7.00;99.90
18541;DHT22;9400;50.924;5.328;2022-11-13T06:12:43;7.00;99.90
18541;DHT22;9400;50.924;5.328;2022-11-13T06:15:10;7.00;99.90
18541;DHT22;9400;50.924;5.328;2022-11-13T06:17:38;7.00;99.90
18541;DHT22;9400;50.924;5.328;2022-11-13T06:20:06;7.00;99.90
18541;DHT22;9400;50.924;5.328;2022-11-13T06:22:36;6.90;99.90
18541;DHT22;9400;50.924;5.328;2022-11-13T06:25:05;6.80;99.90
18541;DHT22;9400;50.924;5.328;2022-11-13T06:27:32;6.80;99.90
18541;DHT22;9400;50.924;5.328;2022-11-13T06:30:00;6.70;99.90
18541;DHT22;9400;50.924;5.328;2022-11-13T06:32:28;6.80;99.90
18541;DHT22;9400;50.924;5.328;2022-11-13T06:34:56;6.80;99.90
18541;DHT22;9400;50.924;5.328;2022-11-13T06:37:24;6.70;99.90
18541;DHT22;9400;50.924;5.328;2022-11-13T06:39:53;6.70;99.90
18541;DHT22;9400;50.924;5.328;2022-11-13T06:42:20;6.60;99.90
18541;DHT22;9400;50.924;5.328;2022-11-13T06:44:48;6.60;99.90
18541;DHT22;9400;50.924;5.328;2022-11-13T06:47:16;6.70;99.90
18541;DHT22;9400;50.924;5.328;2022-11-13T06:49:44;6.60;99.90
18541;DHT22;9400;50.924;5.328;2022-11-13T06:52:11;6.50;99.90
18541;DHT22;9400;50.924;5.328;2022-11-13T06:54:39;6.60;99.90
18541;DHT22;9400;50.924;5.328;2022-11-13T06:57:08;6.60;99.90
18541;DHT22;9400;50.924;5.328;2022-11-13T06:59:36;6.70;99.90
18541;DHT22;9400;50.924;5.328;2022-11-13T07:02:04;6.70;99.90
18541;DHT22;9400;50.924;5.328;2022-11-13T07:04:32;6.70;99.90
18541;DHT22;9400;50.924;5.328;2022-11-13T07:07:00;6.70;99.90
18541;DHT22;9400;50.924;5.328;2022-11-13T07:09:28;6.60;99.90
18541;DHT22;9400;50.924;5.328;2022-11-13T07:11:55;6.60;99.90
18541;DHT22;9400;50.924;5.328;2022-11-13T07:14:24;6.60;99.90
18541;DHT22;9400;50.924;5.328;2022-11-13T07:16:52;6.60;99.90
18541;DHT22;9400;50.924;5.328;2022-11-13T07:19:20;6.60;99.90
18541;DHT22;9400;50.924;5.328;2022-11-13T07:21:48;6.60;99.90
18541;DHT22;9400;50.924;5.328;2022-11-13T07:24:16;6.70;99.90
18541;DHT22;9400;50.924;5.328;2022-11-13T07:26:44;6.60;99.90
18541;DHT22;9400;50.924;5.328;2022-11-13T07:29:11;6.70;99.90
18541;DHT22;9400;50.924;5.328;2022-11-13T07:31:40;6.60;99.90
18541;DHT22;9400;50.924;5.328;2022-11-13T07:34:09;6.70;99.90
18541;DHT22;9400;50.924;5.328;2022-11-13T07:36:36;6.90;99.90
18541;DHT22;9400;50.924;5.328;2022-11-13T07:39:04;6.90;99.90
18541;DHT22;9400;50.924;5.328;2022-11-13T07:41:32;6.90;99.90
18541;DHT22;9400;50.924;5.328;2022-11-13T07:44:00;7.00;99.90
18541;DHT22;9400;50.924;5.328;2022-11-13T07:46:27;7.00;99.90
18541;DHT22;9400;50.924;5.328;2022-11-13T07:48:56;7.00;99.90
18541;DHT22;9400;50.924;5.328;2022-11-13T07:51:24;7.00;99.90
18541;DHT22;9400;50.924;5.328;2022-11-13T07:53:51;6.90;99.90
18541;DHT22;9400;50.924;5.328;2022-11-13T07:56:19;6.90;99.90
18541;DHT22;9400;50.924;5.328;2022-11-13T07:58:47;7.00;99.90
18541;DHT22;9400;50.924;5.328;2022-11-13T08:01:15;7.00;99.90
18541;DHT22;9400;50.924;5.328;2022-11-13T08:03:42;6.90;99.90
18541;DHT22;9400;50.924;5.328;2022-11-13T08:06:11;6.90;99.90
18541;DHT22;9400;50.924;5.328;2022-11-13T08:08:39;6.90;99.90
18541;DHT22;9400;50.924;5.328;2022-11-13T08:11:07;6.90;99.90
18541;DHT22;9400;50.924;5.328;2022-11-13T08:13:35;7.10;99.90
18541;DHT22;9400;50.924;5.328;2022-11-13T08:16:04;7.10;99.90
18541;DHT22;9400;50.924;5.328;2022-11-13T08:18:32;7.20;99.90
18541;DHT22;9400;50.924;5.328;2022-11-13T08:21:01;7.20;99.90
18541;DHT22;9400;50.924;5.328;2022-11-13T08:23:31;7.20;99.90
18541;DHT22;9400;50.924;5.328;2022-11-13T08:26:03;7.30;99.90
18541;DHT22;9400;50.924;5.328;2022-11-13T08:28:31;7.30;99.90
18541;DHT22;9400;50.924;5.328;2022-11-13T08:30:59;7.40;99.90
18541;DHT22;9400;50.924;5.328;2022-11-13T08:33:28;7.60;99.90
18541;DHT22;9400;50.924;5.328;2022-11-13T08:35:57;7.70;99.90
18541;DHT22;9400;50.924;5.328;2022-11-13T08:38:25;7.70;99.90
18541;DHT22;9400;50.924;5.328;2022-11-13T08:40:57;7.70;99.90
18541;DHT22;9400;50.924;5.328;2022-11-13T08:43:25;7.80;99.90
18541;DHT22;9400;50.924;5.328;2022-11-13T08:45:52;7.90;99.90
18541;DHT22;9400;50.924;5.328;2022-11-13T08:48:20;8.00;99.90
18541;DHT22;9400;50.924;5.328;2022-11-13T08:50:51;8.10;99.90
18541;DHT22;9400;50.924;5.328;2022-11-13T08:53:19;8.20;99.90
18541;DHT22;9400;50.924;5.328;2022-11-13T08:55:47;8.30;99.90
18541;DHT22;9400;50.924;5.328;2022-11-13T08:58:16;8.40;99.90
18541;DHT22;9400;50.924;5.328;2022-11-13T09:00:44;8.50;99.90
18541;DHT22;9400;50.924;5.328;2022-11-13T09:03:11;8.60;99.90
18541;DHT22;9400;50.924;5.328;2022-11-13T09:05:39;8.70;99.90
18541;DHT22;9400;50.924;5.328;2022-11-13T09:08:06;8.70;99.90
18541;DHT22;9400;50.924;5.328;2022-11-13T09:10:35;8.60;99.90
18541;DHT22;9400;50.924;5.328;2022-11-13T09:13:04;8.70;99.90
18541;DHT22;9400;50.924;5.328;2022-11-13T09:15:37;8.80;99.90
18541;DHT22;9400;50.924;5.328;2022-11-13T09:18:05;8.90;99.90
18541;DHT22;9400;50.924;5.328;2022-11-13T09:20:33;8.90;99.90
18541;DHT22;9400;50.924;5.328;2022-11-13T09:23:03;9.00;99.90
18541;DHT22;9400;50.924;5.328;2022-11-13T09:25:32;9.10;99.90
18541;DHT22;9400;50.924;5.328;2022-11-13T09:28:02;9.20;99.90
18541;DHT22;9400;50.924;5.328;2022-11-13T09:30:30;9.30;99.90
18541;DHT22;9400;50.924;5.328;2022-11-13T09:33:00;9.40;99.90
18541;DHT22;9400;50.924;5.328;2022-11-13T09:35:28;9.50;99.90
18541;DHT22;9400;50.924;5.328;2022-11-13T09:38:06;9.60;99.90
18541;DHT22;9400;50.924;5.328;2022-11-13T09:40:39;9.70;99.90
18541;DHT22;9400;50.924;5.328;2022-11-13T09:43:19;9.80;99.90
18541;DHT22;9400;50.924;5.328;2022-11-13T09:45:51;9.90;99.90
18541;DHT22;9400;50.924;5.328;2022-11-13T09:48:26;10.00;99.90
18541;DHT22;9400;50.924;5.328;2022-11-13T09:50:56;10.10;99.90
18541;DHT22;9400;50.924;5.328;2022-11-13T09:53:35;10.10;99.90
18541;DHT22;9400;50.924;5.328;2022-11-13T09:56:13;10.20;99.90
18541;DHT22;9400;50.924;5.328;2022-11-13T09:58:47;10.40;99.90
18541;DHT22;9400;50.924;5.328;2022-11-13T10:01:24;10.40;99.90
18541;DHT22;9400;50.924;5.328;2022-11-13T10:03:58;10.60;99.90
18541;DHT22;9400;50.924;5.328;2022-11-13T10:06:33;10.60;99.90
18541;DHT22;9400;50.924;5.328;2022-11-13T10:09:13;10.70;99.90
18541;DHT22;9400;50.924;5.328;2022-11-13T10:11:50;10.80;99.90
18541;DHT22;9400;50.924;5.328;2022-11-13T10:14:25;10.90;99.90
18541;DHT22;9400;50.924;5.328;2022-11-13T10:16:58;11.00;99.90
18541;DHT22;9400;50.924;5.328;2022-11-13T10:19:33;11.10;99.90
18541;DHT22;9400;50.924;5.328;2022-11-13T10:22:04;11.20;99.90
18541;DHT22;9400;50.924;5.328;2022-11-13T10:24:39;11.20;99.90
18541;DHT22;9400;50.924;5.328;2022-11-13T10:27:09;11.20;99.90
18541;DHT22;9400;50.924;5.328;2022-11-13T10:29:37;11.40;99.90
18541;DHT22;9400;50.924;5.328;2022-11-13T10:32:24;11.50;99.90
18541;DHT22;9400;50.924;5.328;2022-11-13T10:35:00;11.60;99.90
18541;DHT22;9400;50.924;5.328;2022-11-13T10:37:51;11.70;99.90
18541;DHT22;9400;50.924;5.328;2022-11-13T10:40:24;11.80;99.90
18541;DHT22;9400;50.924;5.328;2022-11-13T10:42:51;12.00;99.90
18541;DHT22;9400;50.924;5.328;2022-11-13T10:45:20;12.10;99.90
18541;DHT22;9400;50.924;5.328;2022-11-13T10:47:49;12.30;99.90
18541;DHT22;9400;50.924;5.328;2022-11-13T10:50:24;12.30;99.90
18541;DHT22;9400;50.924;5.328;2022-11-13T10:52:54;12.30;99.90
18541;DHT22;9400;50.924;5.328;2022-11-13T10:55:26;12.40;99.90
18541;DHT22;9400;50.924;5.328;2022-11-13T10:57:59;12.60;99.90
18541;DHT22;9400;50.924;5.328;2022-11-13T11:00:30;12.80;99.90
18541;DHT22;9400;50.924;5.328;2022-11-13T11:02:58;12.90;99.90
18541;DHT22;9400;50.924;5.328;2022-11-13T11:05:28;13.00;99.90
18541;DHT22;9400;50.924;5.328;2022-11-13T11:07:56;13.00;99.90
18541;DHT22;9400;50.924;5.328;2022-11-13T11:10:31;13.00;99.90
18541;DHT22;9400;50.924;5.328;2022-11-13T11:13:02;13.20;99.90
18541;DHT22;9400;50.924;5.328;2022-11-13T11:15:38;13.40;99.90
18541;DHT22;9400;50.924;5.328;2022-11-13T11:18:20;13.40;99.90
18541;DHT22;9400;50.924;5.328;2022-11-13T11:20:53;13.60;99.90
18541;DHT22;9400;50.924;5.328;2022-11-13T11:23:27;14.00;99.90
18541;DHT22;9400;50.924;5.328;2022-11-13T11:26:01;14.30;99.90
18541;DHT22;9400;50.924;5.328;2022-11-13T11:28:33;14.50;99.90
18541;DHT22;9400;50.924;5.328;2022-11-13T11:31:11;14.70;99.90
18541;DHT22;9400;50.924;5.328;2022-11-13T11:33:50;14.80;99.90
18541;DHT22;9400;50.924;5.328;2022-11-13T11:36:28;15.10;99.90
18541;DHT22;9400;50.924;5.328;2022-11-13T11:39:05;15.40;99.90
18541;DHT22;9400;50.924;5.328;2022-11-13T11:41:39;15.60;99.90
18541;DHT22;9400;50.924;5.328;2022-11-13T11:44:15;15.70;99.90
18541;DHT22;9400;50.924;5.328;2022-11-13T11:46:45;15.80;99.90
18541;DHT22;9400;50.924;5.328;2022-11-13T11:49:12;15.80;99.90
18541;DHT22;9400;50.924;5.328;2022-11-13T11:51:49;16.10;99.90
18541;DHT22;9400;50.924;5.328;2022-11-13T11:54:30;16.50;99.90
18541;DHT22;9400;50.924;5.328;2022-11-13T11:57:09;16.80;99.90
18541;DHT22;9400;50.924;5.328;2022-11-13T12:00:01;17.30;99.90
18541;DHT22;9400;50.924;5.328;2022-11-13T12:02:57;17.80;99.90
18541;DHT22;9400;50.924;5.328;2022-11-13T12:05:36;17.60;99.90
18541;DHT22;9400;50.924;5.328;2022-11-13T12:08:17;17.40;99.90
18541;DHT22;9400;50.924;5.328;2022-11-13T12:10:55;17.20;99.90
18541;DHT22;9400;50.924;5.328;2022-11-13T12:13:29;17.60;99.90
18541;DHT22;9400;50.924;5.328;2022-11-13T12:16:03;18.50;99.90
18541;DHT22;9400;50.924;5.328;2022-11-13T12:18:43;18.90;99.90
18541;DHT22;9400;50.924;5.328;2022-11-13T12:21:20;19.60;99.90
18541;DHT22;9400;50.924;5.328;2022-11-13T12:26:49;20.70;99.90
18541;DHT22;9400;50.924;5.328;2022-11-13T12:29:35;21.30;99.90
18541;DHT22;9400;50.924;5.328;2022-11-13T12:32:15;21.50;99.90
18541;DHT22;9400;50.924;5.328;2022-11-13T12:34:48;21.90;99.90
18541;DHT22;9400;50.924;5.328;2022-11-13T12:37:23;22.20;99.90
18541;DHT22;9400;50.924;5.328;2022-11-13T12:39:56;22.30;99.90
18541;DHT22;9400;50.924;5.328;2022-11-13T12:42:31;23.00;99.90
18541;DHT22;9400;50.924;5.328;2022-11-13T12:45:08;23.80;99.90
18541;DHT22;9400;50.924;5.328;2022-11-13T12:47:40;24.00;99.90
18541;DHT22;9400;50.924;5.328;2022-11-13T12:50:24;24.80;99.90
18541;DHT22;9400;50.924;5.328;2022-11-13T12:52:59;24.80;99.90
18541;DHT22;9400;50.924;5.328;2022-11-13T12:55:30;25.20;99.90
18541;DHT22;9400;50.924;5.328;2022-11-13T12:58:07;25.90;99.90
18541;DHT22;9400;50.924;5.328;2022-11-13T13:00:37;26.80;99.90
18541;DHT22;9400;50.924;5.328;2022-11-13T13:03:35;26.60;99.90
18541;DHT22;9400;50.924;5.328;2022-11-13T13:06:19;27.40;99.90
18541;DHT22;9400;50.924;5.328;2022-11-13T13:11:48;26.30;99.90
18541;DHT22;9400;50.924;5.328;2022-11-13T13:14:34;26.30;99.90
18541;DHT22;9400;50.924;5.328;2022-11-13T13:17:05;25.10;99.90
18541;DHT22;9400;50.924;5.328;2022-11-13T13:19:33;25.70;99.90
18541;DHT22;9400;50.924;5.328;2022-11-13T13:22:01;27.30;99.90
18541;DHT22;9400;50.924;5.328;2022-11-13T13:24:33;28.60;99.90
18541;DHT22;9400;50.924;5.328;2022-11-13T13:27:20;29.00;99.90
18541;DHT22;9400;50.924;5.328;2022-11-13T13:29:48;28.90;99.90
18541;DHT22;9400;50.924;5.328;2022-11-13T13:32:19;28.50;99.90
18541;DHT22;9400;50.924;5.328;2022-11-13T13:35:01;28.30;99.90
18541;DHT22;9400;50.924;5.328;2022-11-13T13:37:40;27.60;99.90
18541;DHT22;9400;50.924;5.328;2022-11-13T13:40:21;26.50;99.90
18541;DHT22;9400;50.924;5.328;2022-11-13T13:43:08;26.60;99.90
18541;DHT22;9400;50.924;5.328;2022-11-13T13:45:48;27.10;99.90
18541;DHT22;9400;50.924;5.328;2022-11-13T13:48:23;28.50;99.90
18541;DHT22;9400;50.924;5.328;2022-11-13T13:50:51;28.50;99.90
18541;DHT22;9400;50.924;5.328;2022-11-13T13:53:22;28.20;99.90
18541;DHT22;9400;50.924;5.328;2022-11-13T13:55:55;28.20;99.90
18541;DHT22;9400;50.924;5.328;2022-11-13T13:58:27;28.50;99.90
18541;DHT22;9400;50.924;5.328;2022-11-13T14:00:57;29.70;99.90
18541;DHT22;9400;50.924;5.328;2022-11-13T14:03:26;29.20;99.90
18541;DHT22;9400;50.924;5.328;2022-11-13T14:06:06;29.30;99.90
18541;DHT22;9400;50.924;5.328;2022-11-13T14:08:33;28.60;99.90
18541;DHT22;9400;50.924;5.328;2022-11-13T14:11:14;28.40;99.90
18541;DHT22;9400;50.924;5.328;2022-11-13T14:13:44;26.00;99.90
18541;DHT22;9400;50.924;5.328;2022-11-13T14:16:12;22.80;99.90
18541;DHT22;9400;50.924;5.328;2022-11-13T14:18:39;20.80;99.90
18541;DHT22;9400;50.924;5.328;2022-11-13T14:21:11;19.60;99.90
18541;DHT22;9400;50.924;5.328;2022-11-13T14:23:44;18.70;99.90
18541;DHT22;9400;50.924;5.328;2022-11-13T14:26:13;18.30;99.90
18541;DHT22;9400;50.924;5.328;2022-11-13T14:28:47;18.00;99.90
18541;DHT22;9400;50.924;5.328;2022-11-13T14:31:16;17.90;99.90
18541;DHT22;9400;50.924;5.328;2022-11-13T14:33:46;17.80;99.90
18541;DHT22;9400;50.924;5.328;2022-11-13T14:36:15;17.70;99.90
18541;DHT22;9400;50.924;5.328;2022-11-13T14:38:51;17.70;99.90
18541;DHT22;9400;50.924;5.328;2022-11-13T14:41:23;17.80;99.90
18541;DHT22;9400;50.924;5.328;2022-11-13T14:43:54;17.60;99.90
18541;DHT22;9400;50.924;5.328;2022-11-13T14:46:29;17.60;99.90
18541;DHT22;9400;50.924;5.328;2022-11-13T14:48:58;17.60;99.90
18541;DHT22;9400;50.924;5.328;2022-11-13T14:51:28;17.30;99.90
18541;DHT22;9400;50.924;5.328;2022-11-13T14:53:58;17.20;99.90
18541;DHT22;9400;50.924;5.328;2022-11-13T14:56:34;17.10;99.90
18541;DHT22;9400;50.924;5.328;2022-11-13T14:59:12;17.00;99.90
18541;DHT22;9400;50.924;5.328;2022-11-13T15:01:40;17.00;99.90
18541;DHT22;9400;50.924;5.328;2022-11-13T15:04:08;16.80;99.90
18541;DHT22;9400;50.924;5.328;2022-11-13T15:06:37;16.80;99.90
18541;DHT22;9400;50.924;5.328;2022-11-13T15:09:10;16.70;99.90
18541;DHT22;9400;50.924;5.328;2022-11-13T15:11:38;16.50;99.90
18541;DHT22;9400;50.924;5.328;2022-11-13T15:14:11;16.50;99.90
18541;DHT22;9400;50.924;5.328;2022-11-13T15:16:41;16.40;99.90
18541;DHT22;9400;50.924;5.328;2022-11-13T15:19:12;16.40;99.90
18541;DHT22;9400;50.924;5.328;2022-11-13T15:21:41;16.30;99.90
18541;DHT22;9400;50.924;5.328;2022-11-13T15:24:10;16.30;99.90
18541;DHT22;9400;50.924;5.328;2022-11-13T15:26:38;16.10;99.90
18541;DHT22;9400;50.924;5.328;2022-11-13T15:29:07;16.00;99.90
18541;DHT22;9400;50.924;5.328;2022-11-13T15:31:38;16.00;99.90
18541;DHT22;9400;50.924;5.328;2022-11-13T15:34:09;15.90;99.90
18541;DHT22;9400;50.924;5.328;2022-11-13T15:36:37;15.80;99.90
18541;DHT22;9400;50.924;5.328;2022-11-13T15:39:05;15.70;99.90
18541;DHT22;9400;50.924;5.328;2022-11-13T15:41:34;15.70;99.90
18541;DHT22;9400;50.924;5.328;2022-11-13T15:44:05;15.60;99.90
18541;DHT22;9400;50.924;5.328;2022-11-13T15:46:33;15.50;99.90
18541;DHT22;9400;50.924;5.328;2022-11-13T15:49:02;15.40;99.90
18541;DHT22;9400;50.924;5.328;2022-11-13T15:51:32;15.30;99.90
18541;DHT22;9400;50.924;5.328;2022-11-13T15:54:12;15.30;99.90
18541;DHT22;9400;50.924;5.328;2022-11-13T15:56:41;15.10;99.90
18541;DHT22;9400;50.924;5.328;2022-11-13T15:59:10;15.00;99.90
18541;DHT22;9400;50.924;5.328;2022-11-13T16:01:38;14.80;99.90
18541;DHT22;9400;50.924;5.328;2022-11-13T16:04:08;14.70;99.90
18541;DHT22;9400;50.924;5.328;2022-11-13T16:06:38;14.70;99.90
18541;DHT22;9400;50.924;5.328;2022-11-13T16:09:12;14.50;99.90
18541;DHT22;9400;50.924;5.328;2022-11-13T16:11:40;14.50;99.90
18541;DHT22;9400;50.924;5.328;2022-11-13T16:14:08;14.40;99.90
18541;DHT22;9400;50.924;5.328;2022-11-13T16:16:37;14.30;99.90
18541;DHT22;9400;50.924;5.328;2022-11-13T16:19:11;14.20;99.90
18541;DHT22;9400;50.924;5.328;2022-11-13T16:21:42;14.10;99.90